createdAt,value
2022-09-07T00:01:21.651Z,48.40
2022-09-07T00:03:50.055Z,48.40
2022-09-07T00:06:18.473Z,48.10
2022-09-07T00:08:46.860Z,48.50
2022-09-07T00:11:19.022Z,48.70
2022-09-07T00:13:49.210Z,48.40
2022-09-07T00:16:20.498Z,48.40
2022-09-07T00:18:49.845Z,48.60
2022-09-07T00:21:19.019Z,48.20
2022-09-07T00:23:48.733Z,48.10
2022-09-07T00:26:20.508Z,47.70
2022-09-07T00:28:49.542Z,47.90
2022-09-07T00:31:21.040Z,47.80
2022-09-07T00:33:50.425Z,47.70
2022-09-07T00:36:20.099Z,48.20
2022-09-07T00:38:48.987Z,48.30
2022-09-07T00:41:19.736Z,48.40
2022-09-07T00:43:50.356Z,48.70
2022-09-07T00:46:20.586Z,48.80
2022-09-07T00:48:53.433Z,48.50
2022-09-07T00:51:27.644Z,48.10
2022-09-07T00:54:01.293Z,48.10
2022-09-07T00:56:35.770Z,48.20
2022-09-07T00:59:05.114Z,48.50
2022-09-07T01:01:34.970Z,48.50
2022-09-07T01:04:05.396Z,48.40
2022-09-07T01:06:36.251Z,48.40
2022-09-07T01:09:06.848Z,48.40
2022-09-07T01:11:37.222Z,48.60
2022-09-07T01:14:08.929Z,48.70
2022-09-07T01:16:55.481Z,48.70
2022-09-07T01:19:53.784Z,48.60
2022-09-07T01:22:51.404Z,48.60
2022-09-07T01:25:33.536Z,48.70
2022-09-07T01:28:11.941Z,48.80
2022-09-07T01:30:50.365Z,49.10
2022-09-07T01:33:35.245Z,49.40
2022-09-07T01:36:13.426Z,49.60
2022-09-07T01:38:45.914Z,49.30
2022-09-07T01:41:19.236Z,49.20
2022-09-07T01:43:54.557Z,49.50
2022-09-07T01:46:27.950Z,49.70
2022-09-07T01:49:01.527Z,49.50
2022-09-07T01:51:35.435Z,49.80
2022-09-07T01:54:10.468Z,49.60
2022-09-07T01:56:43.564Z,50.10
2022-09-07T01:59:19.664Z,49.70
2022-09-07T02:01:55.448Z,49.60
2022-09-07T02:04:28.204Z,49.70
2022-09-07T02:07:05.881Z,49.40
2022-09-07T02:09:38.781Z,49.50
2022-09-07T02:12:15.889Z,49.40
2022-09-07T02:14:52.679Z,49.60
2022-09-07T02:17:26.445Z,49.40
2022-09-07T02:20:00.084Z,49.40
2022-09-07T02:22:33.919Z,49.80
2022-09-07T02:25:05.364Z,50.00
2022-09-07T02:27:40.658Z,49.60
2022-09-07T02:30:11.719Z,49.30
2022-09-07T02:32:40.046Z,49.00
2022-09-07T02:35:10.832Z,49.00
2022-09-07T02:37:46.182Z,49.10
2022-09-07T02:40:14.923Z,48.90
2022-09-07T02:42:44.592Z,48.80
2022-09-07T02:45:17.094Z,49.40
2022-09-07T02:47:57.080Z,49.30
2022-09-07T02:50:48.842Z,49.20
2022-09-07T02:53:34.430Z,49.90
2022-09-07T02:56:12.430Z,49.50
2022-09-07T02:58:50.449Z,49.20
2022-09-07T03:01:33.287Z,49.60
2022-09-07T03:04:09.019Z,49.20
2022-09-07T03:06:42.056Z,49.20
2022-09-07T03:09:16.226Z,49.20
2022-09-07T03:11:44.699Z,49.50
2022-09-07T03:14:14.807Z,49.40
2022-09-07T03:16:45.079Z,49.20
2022-09-07T03:19:14.318Z,49.00
2022-09-07T03:21:42.733Z,48.70
2022-09-07T03:24:11.704Z,48.60
2022-09-07T03:26:44.501Z,48.60
2022-09-07T03:29:16.319Z,48.90
2022-09-07T03:31:47.101Z,49.20
2022-09-07T03:34:19.224Z,48.90
2022-09-07T03:36:49.407Z,49.10
2022-09-07T03:39:20.866Z,49.60
2022-09-07T03:41:50.019Z,49.70
2022-09-07T03:44:18.956Z,49.80
2022-09-07T03:46:49.319Z,49.70
2022-09-07T03:49:17.797Z,49.40
2022-09-07T03:51:46.348Z,49.60
2022-09-07T03:54:14.775Z,50.00
2022-09-07T03:56:44.245Z,49.90
2022-09-07T03:59:12.878Z,49.60
2022-09-07T04:01:41.392Z,49.80
2022-09-07T04:04:11.426Z,50.10
2022-09-07T04:06:40.833Z,49.70
2022-09-07T04:09:15.359Z,50.00
2022-09-07T04:11:43.994Z,49.70
2022-09-07T04:14:13.369Z,49.70
2022-09-07T04:16:41.701Z,50.30
2022-09-07T04:19:11.486Z,50.40
2022-09-07T04:21:39.986Z,50.40
2022-09-07T04:24:08.630Z,50.20
2022-09-07T04:26:38.035Z,50.40
2022-09-07T04:29:07.251Z,50.50
2022-09-07T04:31:36.145Z,50.40
2022-09-07T04:34:05.885Z,50.60
2022-09-07T04:36:36.837Z,50.50
2022-09-07T04:39:06.974Z,50.60
2022-09-07T04:41:35.780Z,49.90
2022-09-07T04:44:05.306Z,49.80
2022-09-07T04:46:35.657Z,50.00
2022-09-07T04:49:06.344Z,50.00
2022-09-07T04:51:36.846Z,50.10
2022-09-07T04:54:06.323Z,50.10
2022-09-07T04:56:34.938Z,50.10
2022-09-07T04:59:04.110Z,49.80
2022-09-07T05:01:32.962Z,50.00
2022-09-07T05:04:02.201Z,50.10
2022-09-07T05:06:34.593Z,50.20
2022-09-07T05:09:04.824Z,50.40
2022-09-07T05:11:33.076Z,50.30
2022-09-07T05:14:04.069Z,50.20
2022-09-07T05:16:32.984Z,50.50
2022-09-07T05:19:03.217Z,50.10
2022-09-07T05:21:33.580Z,50.10
2022-09-07T05:24:04.172Z,50.00
2022-09-07T05:26:35.713Z,50.00
2022-09-07T05:31:54.729Z,49.80
2022-09-07T05:34:30.972Z,49.70
2022-09-07T05:37:00.807Z,49.90
2022-09-07T05:39:30.874Z,49.80
2022-09-07T05:41:59.380Z,49.70
2022-09-07T05:47:11.891Z,50.40
2022-09-07T05:49:40.376Z,50.20
2022-09-07T05:52:08.837Z,50.00
2022-09-07T05:54:38.457Z,49.80
2022-09-07T05:57:08.009Z,49.70
2022-09-07T05:59:36.317Z,49.50
2022-09-07T06:02:05.708Z,49.70
2022-09-07T06:04:34.255Z,49.80
2022-09-07T06:07:21.020Z,49.90
2022-09-07T06:12:41.145Z,49.50
2022-09-07T06:15:11.705Z,49.10
2022-09-07T06:17:40.179Z,49.30
2022-09-07T06:20:09.493Z,49.40
2022-09-07T06:22:38.562Z,49.20
2022-09-07T06:25:09.093Z,49.80
2022-09-07T06:27:38.516Z,49.60
2022-09-07T06:30:07.739Z,49.50
2022-09-07T06:32:45.713Z,49.50
2022-09-07T06:35:15.497Z,49.30
2022-09-07T06:37:44.708Z,49.40
2022-09-07T06:40:14.452Z,49.40
2022-09-07T06:42:46.529Z,49.20
2022-09-07T06:45:14.965Z,49.40
2022-09-07T06:47:43.444Z,49.30
2022-09-07T06:50:12.426Z,49.10
2022-09-07T06:55:31.791Z,47.30
2022-09-07T06:58:00.327Z,47.20
2022-09-07T07:00:29.002Z,47.40
2022-09-07T07:02:57.360Z,47.30
2022-09-07T07:05:25.946Z,46.80
2022-09-07T07:07:54.301Z,47.20
2022-09-07T07:10:24.967Z,47.10
2022-09-07T07:12:58.409Z,46.80
2022-09-07T07:15:28.763Z,47.20
2022-09-07T07:18:02.607Z,46.80
2022-09-07T07:20:38.737Z,46.80
2022-09-07T07:23:07.600Z,46.90
2022-09-07T07:25:37.115Z,46.70
2022-09-07T07:30:58.739Z,46.80
2022-09-07T07:33:31.669Z,46.70
2022-09-07T07:36:11.587Z,46.80
2022-09-07T07:44:23.397Z,47.00
2022-09-07T07:46:52.364Z,46.60
2022-09-07T07:49:21.976Z,46.90
2022-09-07T07:54:40.407Z,46.60
2022-09-07T07:57:10.359Z,46.60
2022-09-07T07:59:41.014Z,46.90
2022-09-07T08:02:16.074Z,46.90
2022-09-07T08:04:46.793Z,46.80
2022-09-07T08:07:17.252Z,47.00
2022-09-07T08:09:47.696Z,46.90
2022-09-07T08:12:18.270Z,47.00
2022-09-07T08:14:48.921Z,47.00
2022-09-07T08:17:25.866Z,46.90
2022-09-07T08:19:55.959Z,46.90
2022-09-07T08:22:25.077Z,46.90
2022-09-07T08:24:53.514Z,46.80
2022-09-07T08:27:22.197Z,46.30
2022-09-07T08:29:51.829Z,45.70
2022-09-07T08:32:20.914Z,45.80
2022-09-07T08:34:49.846Z,43.90
2022-09-07T08:37:18.308Z,44.20
2022-09-07T08:39:47.928Z,43.40
2022-09-07T08:42:42.904Z,43.50
2022-09-07T08:45:18.368Z,43.60
2022-09-07T08:47:50.435Z,43.30
2022-09-07T08:50:28.246Z,42.60
2022-09-07T08:53:13.312Z,42.90
2022-09-07T08:55:49.339Z,42.50
2022-09-07T08:58:47.588Z,42.20
2022-09-07T09:01:32.542Z,41.90
2022-09-07T09:04:18.646Z,41.70
2022-09-07T09:06:59.486Z,41.20
2022-09-07T09:09:36.034Z,41.00
2022-09-07T09:12:40.348Z,40.80
2022-09-07T09:15:18.704Z,40.70
2022-09-07T09:18:21.366Z,40.50
2022-09-07T09:20:56.946Z,40.30
2022-09-07T09:23:27.946Z,40.20
2022-09-07T09:25:58.977Z,40.00
2022-09-07T09:28:31.842Z,39.10
2022-09-07T09:31:02.135Z,38.50
2022-09-07T09:33:33.257Z,38.00
2022-09-07T09:36:03.322Z,37.50
2022-09-07T09:38:36.336Z,37.20
2022-09-07T09:41:07.841Z,37.00
2022-09-07T09:43:44.561Z,37.20
2022-09-07T09:46:24.488Z,37.20
2022-09-07T09:49:00.343Z,36.90
2022-09-07T09:54:33.207Z,36.30
2022-09-07T09:57:02.220Z,36.60
2022-09-07T10:05:30.265Z,35.50
2022-09-07T10:08:00.393Z,35.70
2022-09-07T10:10:31.604Z,35.30
2022-09-07T10:13:01.753Z,34.30
2022-09-07T10:15:39.937Z,34.30
2022-09-07T10:18:21.376Z,33.90
2022-09-07T10:20:53.905Z,34.30
2022-09-07T10:23:25.772Z,34.00
2022-09-07T10:26:22.604Z,33.60
2022-09-07T10:29:15.022Z,33.90
2022-09-07T10:32:18.634Z,33.90
2022-09-07T10:34:57.763Z,33.80
2022-09-07T10:37:40.629Z,32.50
2022-09-07T10:40:25.052Z,32.10
2022-09-07T10:43:22.247Z,31.90
2022-09-07T10:49:22.960Z,30.40
2022-09-07T10:52:14.162Z,30.50
2022-09-07T10:54:54.446Z,30.60
2022-09-07T10:57:53.282Z,29.50
2022-09-07T11:00:38.766Z,29.20
2022-09-07T11:03:30.259Z,29.10
2022-09-07T11:06:14.697Z,29.10
2022-09-07T11:09:19.038Z,28.20
2022-09-07T11:12:14.220Z,28.50
2022-09-07T11:14:58.014Z,28.70
2022-09-07T11:17:50.636Z,28.90
2022-09-07T11:20:35.557Z,28.00
2022-09-07T11:23:16.770Z,28.00
2022-09-07T11:25:53.853Z,27.10
2022-09-07T11:28:27.105Z,27.10
2022-09-07T11:31:00.797Z,27.10
2022-09-07T11:33:34.866Z,27.30
2022-09-07T11:36:12.167Z,27.40
2022-09-07T11:38:46.614Z,27.90
2022-09-07T11:41:28.110Z,27.50
2022-09-07T11:44:06.960Z,27.40
2022-09-07T11:46:42.477Z,27.20
2022-09-07T11:49:19.004Z,27.20
2022-09-07T11:51:54.714Z,26.90
2022-09-07T11:54:34.575Z,26.30
2022-09-07T11:57:30.901Z,27.10
2022-09-07T12:00:17.371Z,27.10
2022-09-07T12:03:26.423Z,27.10
2022-09-07T12:06:16.160Z,26.50
2022-09-07T12:09:03.216Z,26.90
2022-09-07T12:11:58.243Z,26.30
2022-09-07T12:14:44.625Z,27.10
2022-09-07T12:17:41.290Z,27.10
2022-09-07T12:20:15.926Z,26.50
2022-09-07T12:23:04.561Z,26.20
2022-09-07T12:25:37.699Z,26.30
2022-09-07T12:28:17.532Z,25.80
2022-09-07T12:31:07.587Z,24.90
2022-09-07T12:33:39.472Z,24.60
2022-09-07T12:36:43.451Z,24.70
2022-09-07T12:39:28.983Z,24.60
2022-09-07T12:42:37.799Z,24.60
2022-09-07T12:45:49.754Z,24.60
2022-09-07T12:48:34.760Z,24.60
2022-09-07T12:51:16.698Z,24.40
2022-09-07T12:53:57.694Z,24.30
2022-09-07T12:56:39.513Z,23.90
2022-09-07T12:59:34.042Z,23.60
2022-09-07T13:02:31.687Z,24.10
2022-09-07T13:05:14.428Z,24.40
2022-09-07T13:08:17.764Z,23.30
2022-09-07T13:10:47.791Z,24.10
2022-09-07T13:17:16.063Z,23.30
2022-09-07T13:19:57.084Z,22.00
2022-09-07T13:22:57.798Z,23.40
2022-09-07T13:25:49.573Z,23.50
2022-09-07T13:28:41.271Z,24.00
2022-09-07T13:31:52.830Z,24.10
2022-09-07T13:34:54.278Z,24.40
2022-09-07T13:37:27.097Z,23.70
2022-09-07T13:39:58.826Z,23.80
2022-09-07T13:42:33.053Z,23.50
2022-09-07T13:45:09.147Z,23.70
2022-09-07T13:47:40.737Z,23.00
2022-09-07T13:50:21.021Z,23.10
2022-09-07T13:53:16.130Z,22.70
2022-09-07T13:55:53.082Z,22.90
2022-09-07T13:58:29.675Z,23.10
2022-09-07T14:01:01.911Z,21.90
2022-09-07T14:03:37.741Z,22.60
2022-09-07T14:06:33.361Z,23.00
2022-09-07T14:09:04.669Z,23.10
2022-09-07T14:11:42.209Z,23.20
2022-09-07T14:14:19.776Z,23.00
2022-09-07T14:16:54.340Z,22.10
2022-09-07T14:19:25.914Z,21.10
2022-09-07T14:22:03.119Z,20.50
2022-09-07T14:24:37.949Z,21.00
2022-09-07T14:27:08.043Z,21.20
2022-09-07T14:29:39.818Z,21.30
2022-09-07T14:32:16.049Z,21.10
2022-09-07T14:34:46.678Z,21.20
2022-09-07T14:37:18.735Z,21.50
2022-09-07T14:39:52.929Z,21.10
2022-09-07T14:42:25.323Z,21.10
2022-09-07T14:45:20.389Z,20.80
2022-09-07T14:47:52.307Z,21.10
2022-09-07T14:50:25.467Z,21.10
2022-09-07T14:55:46.981Z,20.80
2022-09-07T14:58:24.685Z,21.10
2022-09-07T15:04:00.459Z,22.40
2022-09-07T15:09:30.836Z,22.90
2022-09-07T15:12:19.112Z,23.40
2022-09-07T15:14:51.340Z,23.80
2022-09-07T15:20:37.943Z,22.90
2022-09-07T15:23:12.563Z,23.50
2022-09-07T15:25:44.343Z,23.90
2022-09-07T15:34:10.020Z,24.60
2022-09-07T15:36:41.004Z,24.50
2022-09-07T15:39:17.152Z,23.70
2022-09-07T15:41:45.965Z,24.50
2022-09-07T15:44:15.020Z,24.60
2022-09-07T15:47:42.367Z,24.60
2022-09-07T15:49:35.008Z,25.00
2022-09-07T15:52:05.416Z,25.00
2022-09-07T15:54:39.723Z,25.60
2022-09-07T16:00:38.184Z,28.80
2022-09-07T16:03:16.429Z,31.60
2022-09-07T16:05:46.643Z,32.70
2022-09-07T16:11:18.274Z,34.70
2022-09-07T16:13:48.667Z,34.60
2022-09-07T16:16:17.277Z,34.10
2022-09-07T16:18:47.175Z,33.90
2022-09-07T16:21:17.774Z,33.80
2022-09-07T16:23:49.091Z,33.10
2022-09-07T16:26:19.217Z,33.50
2022-09-07T16:28:49.771Z,33.10
2022-09-07T16:31:21.341Z,33.80
2022-09-07T16:33:50.487Z,33.70
2022-09-07T16:36:23.500Z,34.30
2022-09-07T16:38:56.529Z,32.90
2022-09-07T16:41:29.038Z,34.00
2022-09-07T16:43:59.675Z,33.70
2022-09-07T16:46:35.475Z,33.80
2022-09-07T16:49:06.987Z,34.00
2022-09-07T16:51:36.469Z,34.50
2022-09-07T16:54:06.052Z,34.90
2022-09-07T16:56:39.399Z,36.20
2022-09-07T16:59:18.344Z,36.90
2022-09-07T17:01:56.751Z,37.80
2022-09-07T17:04:26.735Z,38.00
2022-09-07T17:06:58.051Z,38.40
2022-09-07T17:09:28.854Z,38.40
2022-09-07T17:11:57.443Z,38.40
2022-09-07T17:14:28.221Z,38.50
2022-09-07T17:16:56.575Z,38.40
2022-09-07T17:19:32.622Z,38.70
2022-09-07T17:22:03.491Z,38.80
2022-09-07T17:24:51.309Z,39.40
2022-09-07T17:27:19.625Z,39.90
2022-09-07T17:29:49.037Z,39.70
2022-09-07T17:32:25.967Z,39.50
2022-09-07T17:34:55.591Z,39.30
2022-09-07T17:37:26.873Z,39.50
2022-09-07T17:39:56.644Z,39.40
2022-09-07T17:43:38.667Z,39.10
2022-09-07T17:45:16.783Z,38.70
2022-09-07T17:47:45.260Z,38.90
2022-09-07T17:50:14.208Z,39.10
2022-09-07T17:52:45.885Z,39.10
2022-09-07T17:55:15.042Z,39.10
2022-09-07T17:57:44.436Z,39.50
2022-09-07T18:00:15.255Z,39.70
2022-09-07T18:02:43.730Z,39.50
2022-09-07T18:05:12.068Z,39.70
2022-09-07T18:07:40.281Z,40.00
2022-09-07T18:10:11.074Z,40.40
2022-09-07T18:12:39.518Z,40.90
2022-09-07T18:15:09.525Z,41.10
2022-09-07T18:17:39.392Z,40.60
2022-09-07T18:20:09.531Z,40.80
2022-09-07T18:22:38.943Z,40.70
2022-09-07T18:25:10.431Z,40.90
2022-09-07T18:27:39.887Z,41.00
2022-09-07T18:30:10.127Z,41.50
2022-09-07T18:32:38.662Z,41.30
2022-09-07T18:35:08.650Z,41.40
2022-09-07T18:37:39.419Z,41.30
2022-09-07T18:40:11.993Z,41.30
2022-09-07T18:42:41.870Z,42.20
2022-09-07T18:45:28.441Z,42.20
2022-09-07T18:47:57.151Z,42.10
2022-09-07T18:50:26.337Z,41.70
2022-09-07T18:53:03.995Z,42.20
2022-09-07T18:55:38.213Z,42.20
2022-09-07T18:58:07.203Z,42.10
2022-09-07T19:00:37.306Z,42.00
2022-09-07T19:03:06.711Z,42.10
2022-09-07T19:05:52.719Z,41.70
2022-09-07T19:08:22.309Z,41.60
2022-09-07T19:10:52.737Z,41.80
2022-09-07T19:13:22.240Z,41.70
2022-09-07T19:15:50.712Z,41.70
2022-09-07T19:18:18.812Z,41.80
2022-09-07T19:20:47.616Z,42.50
2022-09-07T19:23:16.851Z,42.70
2022-09-07T19:25:45.064Z,43.00
2022-09-07T19:28:15.481Z,42.60
2022-09-07T19:30:43.763Z,42.50
2022-09-07T19:33:13.605Z,42.50
2022-09-07T19:35:42.819Z,42.70
2022-09-07T19:38:12.489Z,42.50
2022-09-07T19:40:42.185Z,42.70
2022-09-07T19:43:11.015Z,42.90
2022-09-07T19:45:42.095Z,42.70
2022-09-07T19:48:10.463Z,43.30
2022-09-07T19:50:38.893Z,43.50
2022-09-07T19:53:07.188Z,43.40
2022-09-07T19:55:35.357Z,43.60
2022-09-07T19:58:03.676Z,43.70
2022-09-07T20:00:32.414Z,43.60
2022-09-07T20:03:02.327Z,43.90
2022-09-07T20:05:31.470Z,44.10
2022-09-07T20:07:59.828Z,43.60
2022-09-07T20:10:28.517Z,44.20
2022-09-07T20:12:57.203Z,45.00
2022-09-07T20:15:26.290Z,44.40
2022-09-07T20:17:55.467Z,44.10
2022-09-07T20:20:26.752Z,44.80
2022-09-07T20:22:55.981Z,45.00
2022-09-07T20:25:24.664Z,45.30
2022-09-07T20:27:53.554Z,44.80
2022-09-07T20:30:24.426Z,44.70
2022-09-07T20:32:52.773Z,44.10
2022-09-07T20:35:21.209Z,44.80
2022-09-07T20:37:51.100Z,44.70
2022-09-07T20:40:19.569Z,45.20
2022-09-07T20:42:47.772Z,44.60
2022-09-07T20:45:16.302Z,44.90
2022-09-07T20:47:45.185Z,44.50
2022-09-07T20:50:14.069Z,44.60
2022-09-07T20:52:42.406Z,45.30
2022-09-07T20:55:12.559Z,45.20
2022-09-07T20:57:40.963Z,44.80
2022-09-07T21:00:10.346Z,45.40
2022-09-07T21:02:39.253Z,45.00
2022-09-07T21:05:07.951Z,45.10
2022-09-07T21:07:38.903Z,45.20
2022-09-07T21:10:08.739Z,47.00
2022-09-07T21:12:38.387Z,45.30
2022-09-07T21:15:08.873Z,46.50
2022-09-07T21:17:38.782Z,47.00
2022-09-07T21:20:07.681Z,47.40
2022-09-07T21:22:36.032Z,47.10
2022-09-07T21:25:04.550Z,47.00
2022-09-07T21:27:38.815Z,47.50
2022-09-07T21:30:09.698Z,47.10
2022-09-07T21:32:38.295Z,46.80
2022-09-07T21:35:07.364Z,47.00
2022-09-07T21:37:39.457Z,46.70
2022-09-07T21:40:08.744Z,46.80
2022-09-07T21:42:37.361Z,46.60
2022-09-07T21:45:07.021Z,46.30
2022-09-07T21:47:36.927Z,46.60
2022-09-07T21:50:06.050Z,46.50
2022-09-07T21:52:34.716Z,46.70
2022-09-07T21:55:03.230Z,46.90
2022-09-07T21:57:31.783Z,47.00
2022-09-07T22:00:00.997Z,46.50
2022-09-07T22:02:30.759Z,46.90
2022-09-07T22:05:02.173Z,46.90
2022-09-07T22:07:31.181Z,46.70
2022-09-07T22:09:59.445Z,47.10
2022-09-07T22:12:28.123Z,46.80
2022-09-07T22:14:57.305Z,47.10
2022-09-07T22:17:26.620Z,47.10
2022-09-07T22:19:54.852Z,47.00
2022-09-07T22:22:24.825Z,47.10
2022-09-07T22:24:53.082Z,47.00
2022-09-07T22:27:21.765Z,47.00
2022-09-07T22:29:51.432Z,47.20
2022-09-07T22:32:19.604Z,47.40
2022-09-07T22:34:48.917Z,47.50
2022-09-07T22:37:17.607Z,47.20
2022-09-07T22:39:48.278Z,47.50
2022-09-07T22:42:16.837Z,47.30
2022-09-07T22:44:45.258Z,46.90
2022-09-07T22:47:13.750Z,48.00
2022-09-07T22:49:41.980Z,48.10
2022-09-07T22:52:17.218Z,47.80
2022-09-07T22:54:46.731Z,48.50
2022-09-07T22:57:16.894Z,48.00
2022-09-07T22:59:45.231Z,48.10
2022-09-07T23:02:14.102Z,47.50
2022-09-07T23:04:42.769Z,47.50
2022-09-07T23:07:11.868Z,48.40
2022-09-07T23:09:40.359Z,48.50
2022-09-07T23:12:09.928Z,48.40
2022-09-07T23:14:38.298Z,49.40
2022-09-07T23:17:06.528Z,49.80
2022-09-07T23:19:34.772Z,49.90
2022-09-07T23:22:02.906Z,49.40
2022-09-07T23:24:31.552Z,48.50
2022-09-07T23:27:01.286Z,48.50
2022-09-07T23:29:30.997Z,48.70
2022-09-07T23:32:00.260Z,48.50
2022-09-07T23:34:30.728Z,48.10
2022-09-07T23:37:00.252Z,48.10
2022-09-07T23:39:29.490Z,48.00
2022-09-07T23:41:59.376Z,48.10
2022-09-07T23:44:30.373Z,47.80
2022-09-07T23:46:58.775Z,48.00
2022-09-07T23:49:27.045Z,48.10
2022-09-07T23:51:55.332Z,47.80
2022-09-07T23:54:24.301Z,47.80
2022-09-07T23:56:53.100Z,47.80
2022-09-07T23:59:21.669Z,48.00
